createdAt,value
2019-02-17T00:00:29.213Z,52.70
2019-02-17T00:02:57.655Z,52.30
2019-02-17T00:05:26.081Z,52.90
2019-02-17T00:07:54.475Z,53.40
2019-02-17T00:10:22.901Z,53.60
2019-02-17T00:12:51.333Z,54.20
2019-02-17T00:15:19.788Z,54.50
2019-02-17T00:17:48.262Z,54.40
2019-02-17T00:20:16.723Z,54.70
2019-02-17T00:22:45.561Z,55.50
2019-02-17T00:25:14.029Z,56.00
2019-02-17T00:27:42.446Z,56.20
2019-02-17T00:30:12.314Z,56.50
2019-02-17T00:32:40.709Z,56.80
2019-02-17T00:35:09.694Z,56.70
2019-02-17T00:37:38.132Z,56.70
2019-02-17T00:40:07.976Z,56.60
2019-02-17T00:42:36.824Z,56.50
2019-02-17T00:45:07.123Z,55.90
2019-02-17T00:47:35.595Z,55.20
2019-02-17T00:50:08.270Z,54.60
2019-02-17T00:52:36.669Z,54.70
2019-02-17T00:55:06.529Z,54.30
2019-02-17T00:57:35.038Z,54.20
2019-02-17T01:00:05.476Z,53.70
2019-02-17T01:02:33.917Z,53.60
2019-02-17T01:05:02.409Z,53.20
2019-02-17T01:07:30.909Z,52.80
2019-02-17T01:09:59.356Z,52.30
2019-02-17T01:12:27.825Z,52.20
2019-02-17T01:14:56.224Z,51.50
2019-02-17T01:17:24.628Z,51.60
2019-02-17T01:19:53.024Z,51.50
2019-02-17T01:22:21.444Z,51.20
2019-02-17T01:24:49.856Z,51.20
2019-02-17T01:27:18.259Z,51.20
2019-02-17T01:29:46.718Z,50.90
2019-02-17T01:32:15.182Z,51.10
2019-02-17T01:34:43.649Z,51.00
2019-02-17T01:37:12.077Z,51.20
2019-02-17T01:39:40.506Z,51.20
2019-02-17T01:42:09.197Z,51.00
2019-02-17T01:44:37.605Z,50.90
2019-02-17T01:47:06.375Z,50.60
2019-02-17T01:49:34.820Z,50.40
2019-02-17T01:52:03.276Z,50.30
2019-02-17T01:54:31.663Z,50.20
2019-02-17T01:57:00.081Z,50.30
2019-02-17T01:59:30.697Z,50.60
2019-02-17T02:01:58.626Z,50.60
2019-02-17T02:04:27.014Z,50.40
2019-02-17T02:06:55.433Z,50.50
2019-02-17T02:09:23.824Z,50.80
2019-02-17T02:11:52.241Z,51.20
2019-02-17T02:14:20.625Z,51.30
2019-02-17T02:16:49.056Z,50.90
2019-02-17T02:19:17.457Z,51.20
2019-02-17T02:21:45.868Z,51.50
2019-02-17T02:24:14.609Z,52.00
2019-02-17T02:26:43.118Z,51.80
2019-02-17T02:29:11.507Z,51.90
2019-02-17T02:31:39.903Z,52.00
2019-02-17T02:34:08.317Z,52.20
2019-02-17T02:36:36.721Z,52.20
2019-02-17T02:39:06.686Z,53.10
2019-02-17T02:41:35.247Z,52.30
2019-02-17T02:44:03.702Z,52.20
2019-02-17T02:46:32.238Z,52.30
2019-02-17T02:49:00.657Z,51.90
2019-02-17T02:51:29.059Z,51.90
2019-02-17T02:53:57.725Z,52.20
2019-02-17T02:56:26.120Z,52.60
2019-02-17T02:58:54.564Z,53.10
2019-02-17T03:01:22.965Z,53.50
2019-02-17T03:03:51.413Z,53.70
2019-02-17T03:06:21.781Z,53.70
2019-02-17T03:08:50.228Z,54.00
2019-02-17T03:11:18.617Z,54.10
2019-02-17T03:13:47.045Z,54.20
2019-02-17T03:16:15.458Z,54.00
2019-02-17T03:18:43.901Z,54.60
2019-02-17T03:21:12.312Z,54.70
2019-02-17T03:23:40.743Z,54.70
2019-02-17T03:26:09.162Z,54.80
2019-02-17T03:28:37.674Z,55.20
2019-02-17T03:31:06.095Z,55.00
2019-02-17T03:33:34.512Z,55.30
2019-02-17T03:36:02.921Z,55.20
2019-02-17T03:38:31.385Z,55.40
2019-02-17T03:40:59.946Z,54.90
2019-02-17T03:43:28.368Z,54.90
2019-02-17T03:45:56.761Z,55.10
2019-02-17T03:48:25.177Z,54.70
2019-02-17T03:50:53.581Z,54.90
2019-02-17T03:53:22.014Z,55.10
2019-02-17T03:55:50.406Z,55.70
2019-02-17T03:58:18.817Z,56.00
2019-02-17T04:00:47.225Z,55.90
2019-02-17T04:03:15.685Z,56.10
2019-02-17T04:05:44.094Z,56.40
2019-02-17T04:08:12.847Z,56.40
2019-02-17T04:10:41.329Z,56.40
2019-02-17T04:13:09.723Z,56.30
2019-02-17T04:15:38.120Z,56.60
2019-02-17T04:18:06.514Z,56.70
2019-02-17T04:20:34.997Z,57.00
2019-02-17T04:23:03.398Z,56.80
2019-02-17T04:25:32.106Z,56.70
2019-02-17T04:28:00.513Z,56.60
2019-02-17T04:30:29.847Z,56.60
2019-02-17T04:32:58.590Z,56.80
2019-02-17T04:35:27.010Z,56.50
2019-02-17T04:37:55.389Z,56.70
2019-02-17T04:40:23.842Z,56.40
2019-02-17T04:42:52.233Z,56.20
2019-02-17T04:45:20.643Z,56.10
2019-02-17T04:47:49.037Z,55.50
2019-02-17T04:50:17.450Z,55.00
2019-02-17T04:52:45.877Z,55.20
2019-02-17T04:55:14.349Z,55.40
2019-02-17T04:57:42.777Z,55.30
2019-02-17T05:00:11.526Z,55.30
2019-02-17T05:02:39.969Z,55.00
2019-02-17T05:05:08.359Z,54.90
2019-02-17T05:07:36.795Z,54.90
2019-02-17T05:10:05.953Z,55.00
2019-02-17T05:12:34.381Z,55.20
2019-02-17T05:15:02.835Z,55.30
2019-02-17T05:17:31.218Z,55.10
2019-02-17T05:19:59.683Z,55.40
2019-02-17T05:22:28.165Z,55.50
2019-02-17T05:24:56.619Z,55.10
2019-02-17T05:27:25.010Z,55.20
2019-02-17T05:29:53.436Z,54.60
2019-02-17T05:32:21.828Z,54.60
2019-02-17T05:34:50.275Z,54.40
2019-02-17T05:37:19.000Z,54.30
2019-02-17T05:39:47.625Z,54.20
2019-02-17T05:42:16.030Z,54.20
2019-02-17T05:44:44.474Z,54.50
2019-02-17T05:47:13.139Z,54.30
2019-02-17T05:49:41.613Z,54.80
2019-02-17T05:52:10.015Z,55.00
2019-02-17T05:54:38.432Z,55.20
2019-02-17T05:57:06.830Z,54.80
2019-02-17T05:59:35.275Z,54.80
2019-02-17T06:02:03.665Z,55.30
2019-02-17T06:04:32.414Z,55.20
2019-02-17T06:07:00.885Z,54.70
2019-02-17T06:09:29.595Z,55.00
2019-02-17T06:11:57.982Z,55.40
2019-02-17T06:14:26.751Z,55.30
2019-02-17T06:16:55.150Z,55.20
2019-02-17T06:19:23.601Z,55.20
2019-02-17T06:21:51.991Z,55.00
2019-02-17T06:24:20.378Z,55.10
2019-02-17T06:26:48.846Z,54.90
2019-02-17T06:29:17.318Z,54.30
2019-02-17T06:31:45.724Z,53.90
2019-02-17T06:34:14.166Z,54.20
2019-02-17T06:36:42.578Z,53.80
2019-02-17T06:39:10.983Z,54.00
2019-02-17T06:41:39.415Z,53.50
2019-02-17T06:44:07.846Z,53.60
2019-02-17T06:46:38.217Z,53.60
2019-02-17T06:49:06.629Z,53.50
2019-02-17T06:51:35.096Z,53.50
2019-02-17T06:54:03.889Z,53.20
2019-02-17T06:56:34.307Z,53.00
2019-02-17T06:59:02.734Z,52.70
2019-02-17T07:01:31.183Z,52.60
2019-02-17T07:03:59.599Z,52.60
2019-02-17T07:06:29.654Z,53.70
2019-02-17T07:08:58.057Z,52.60
2019-02-17T07:11:26.515Z,52.20
2019-02-17T07:13:54.927Z,51.80
2019-02-17T07:16:23.820Z,51.30
2019-02-17T07:18:52.971Z,50.60
2019-02-17T07:21:21.407Z,50.30
2019-02-17T07:23:50.066Z,49.80
2019-02-17T07:26:18.578Z,49.30
2019-02-17T07:28:47.024Z,48.60
2019-02-17T07:31:15.545Z,47.50
2019-02-17T07:33:43.937Z,46.30
2019-02-17T07:36:12.476Z,45.80
2019-02-17T07:38:40.942Z,44.90
2019-02-17T07:41:09.353Z,43.90
2019-02-17T07:43:37.773Z,42.60
2019-02-17T07:46:06.222Z,40.50
2019-02-17T07:48:34.701Z,39.50
2019-02-17T07:51:03.152Z,38.40
2019-02-17T07:53:31.572Z,37.20
2019-02-17T07:55:59.993Z,36.50
2019-02-17T07:58:28.457Z,36.00
2019-02-17T08:00:56.873Z,35.10
2019-02-17T08:03:25.274Z,34.30
2019-02-17T08:05:53.781Z,33.40
2019-02-17T08:08:22.168Z,32.50
2019-02-17T08:10:50.628Z,31.70
2019-02-17T08:13:19.029Z,31.30
2019-02-17T08:15:47.445Z,30.20
2019-02-17T08:18:16.367Z,29.80
2019-02-17T08:20:44.797Z,29.30
2019-02-17T08:23:13.213Z,28.80
2019-02-17T08:25:41.629Z,28.20
2019-02-17T08:28:10.074Z,27.70
2019-02-17T08:30:38.501Z,27.10
2019-02-17T08:33:07.259Z,27.40
2019-02-17T08:35:35.701Z,26.40
2019-02-17T08:38:04.161Z,26.00
2019-02-17T08:40:32.643Z,25.30
2019-02-17T08:43:01.723Z,25.00
2019-02-17T08:45:30.119Z,23.90
2019-02-17T08:47:58.548Z,24.20
2019-02-17T08:50:27.001Z,24.70
2019-02-17T08:52:55.433Z,24.50
2019-02-17T08:55:23.848Z,23.80
2019-02-17T08:57:52.285Z,23.80
2019-02-17T09:00:20.826Z,23.40
2019-02-17T09:02:49.298Z,23.90
2019-02-17T09:05:17.722Z,24.20
2019-02-17T09:08:05.608Z,23.10
2019-02-17T09:10:34.013Z,22.70
2019-02-17T09:13:02.485Z,22.20
2019-02-17T09:15:30.892Z,21.90
2019-02-17T09:17:59.742Z,22.00
2019-02-17T09:20:28.245Z,22.10
2019-02-17T09:22:56.978Z,22.20
2019-02-17T09:25:25.394Z,21.70
2019-02-17T09:27:53.828Z,22.10
2019-02-17T09:30:22.233Z,22.40
2019-02-17T09:32:50.677Z,22.50
2019-02-17T09:35:19.111Z,22.30
2019-02-17T09:37:47.588Z,22.10
2019-02-17T09:40:16.258Z,22.50
2019-02-17T09:42:44.708Z,22.40
2019-02-17T09:45:14.970Z,22.20
2019-02-17T09:47:43.401Z,22.30
2019-02-17T09:50:13.346Z,21.90
2019-02-17T09:52:41.886Z,21.50
2019-02-17T09:55:11.236Z,21.10
2019-02-17T09:57:39.702Z,21.00
2019-02-17T10:00:13.612Z,20.90
2019-02-17T10:02:42.046Z,20.60
2019-02-17T10:05:11.611Z,20.80
2019-02-17T10:07:40.052Z,20.70
2019-02-17T10:10:11.538Z,20.70
2019-02-17T10:12:39.990Z,20.00
2019-02-17T10:15:11.230Z,20.00
2019-02-17T10:17:39.652Z,19.90
2019-02-17T10:20:12.717Z,19.50
2019-02-17T10:22:41.171Z,19.40
2019-02-17T10:25:10.197Z,19.30
2019-02-17T10:27:38.654Z,17.90
2019-02-17T10:30:10.367Z,18.40
2019-02-17T10:32:39.309Z,19.00
2019-02-17T10:35:07.989Z,18.70
2019-02-17T10:37:36.523Z,18.40
2019-02-17T10:40:08.376Z,17.50
2019-02-17T10:42:36.849Z,17.10
2019-02-17T10:45:05.797Z,17.00
2019-02-17T10:47:34.276Z,16.40
2019-02-17T10:50:02.710Z,16.20
2019-02-17T10:52:31.262Z,15.90
2019-02-17T10:54:59.713Z,15.30
2019-02-17T10:57:28.185Z,15.30
2019-02-17T10:59:56.678Z,15.10
2019-02-17T11:02:25.113Z,14.90
2019-02-17T11:04:53.591Z,14.90
2019-02-17T11:07:22.025Z,14.60
2019-02-17T11:09:50.536Z,14.60
2019-02-17T11:12:19.011Z,14.50
2019-02-17T11:14:47.496Z,14.40
2019-02-17T11:17:15.913Z,14.10
2019-02-17T11:19:44.398Z,14.40
2019-02-17T11:22:22.724Z,13.40
2019-02-17T11:24:43.102Z,14.40
2019-02-17T11:27:11.537Z,14.00
2019-02-17T11:29:40.085Z,13.60
2019-02-17T11:32:08.624Z,14.20
2019-02-17T11:34:37.115Z,13.30
2019-02-17T11:37:05.527Z,13.50
2019-02-17T11:39:34.033Z,14.10
2019-02-17T11:42:02.471Z,14.00
2019-02-17T11:44:31.981Z,13.80
2019-02-17T11:47:00.522Z,13.70
2019-02-17T11:49:29.279Z,14.10
2019-02-17T11:51:57.981Z,13.90
2019-02-17T11:54:26.446Z,14.00
2019-02-17T11:56:54.849Z,12.90
2019-02-17T11:59:23.323Z,14.50
2019-02-17T12:01:51.725Z,15.20
2019-02-17T12:04:20.246Z,13.40
2019-02-17T12:06:48.689Z,12.00
2019-02-17T12:09:17.249Z,12.60
2019-02-17T12:11:45.654Z,13.40
2019-02-17T12:14:14.165Z,13.50
2019-02-17T12:16:42.572Z,12.40
2019-02-17T12:19:11.078Z,12.60
2019-02-17T12:21:53.376Z,12.60
2019-02-17T12:24:23.496Z,12.80
2019-02-17T12:26:56.288Z,12.70
2019-02-17T12:29:26.394Z,12.90
2019-02-17T12:31:55.189Z,13.30
2019-02-17T12:34:23.860Z,14.10
2019-02-17T12:36:52.302Z,13.50
2019-02-17T12:39:20.778Z,13.20
2019-02-17T12:41:49.225Z,13.30
2019-02-17T12:44:17.734Z,13.30
2019-02-17T12:46:46.194Z,12.70
2019-02-17T12:49:14.724Z,13.20
2019-02-17T12:51:43.136Z,13.10
2019-02-17T12:54:11.603Z,12.90
2019-02-17T12:56:39.994Z,12.50
2019-02-17T12:59:08.414Z,12.90
2019-02-17T13:01:36.943Z,13.10
2019-02-17T13:04:05.464Z,13.30
2019-02-17T13:06:34.192Z,12.30
2019-02-17T13:09:04.266Z,12.30
2019-02-17T13:11:32.724Z,12.40
2019-02-17T13:14:01.189Z,13.20
2019-02-17T13:16:29.634Z,12.90
2019-02-17T13:18:58.371Z,12.60
2019-02-17T13:21:27.163Z,12.70
2019-02-17T13:23:55.608Z,13.10
2019-02-17T13:26:24.189Z,13.60
2019-02-17T13:28:52.644Z,13.60
2019-02-17T13:31:21.082Z,13.90
2019-02-17T13:33:49.956Z,13.80
2019-02-17T13:36:18.475Z,14.10
2019-02-17T13:38:46.900Z,14.00
2019-02-17T13:41:15.420Z,14.10
2019-02-17T13:43:43.840Z,14.30
2019-02-17T13:46:12.297Z,14.30
2019-02-17T13:48:41.114Z,14.60
2019-02-17T13:51:09.541Z,14.70
2019-02-17T13:53:38.120Z,15.00
2019-02-17T13:56:08.670Z,14.80
2019-02-17T13:58:37.101Z,14.80
2019-02-17T14:01:05.566Z,14.90
2019-02-17T14:03:34.058Z,15.10
2019-02-17T14:06:02.525Z,15.40
2019-02-17T14:08:31.383Z,15.60
2019-02-17T14:10:59.961Z,15.70
2019-02-17T14:13:28.433Z,15.60
2019-02-17T14:15:56.880Z,15.50
2019-02-17T14:18:25.468Z,15.60
2019-02-17T14:20:53.908Z,15.80
2019-02-17T14:23:22.354Z,16.00
2019-02-17T14:25:50.885Z,15.60
2019-02-17T14:28:19.303Z,15.30
2019-02-17T14:30:48.021Z,15.10
2019-02-17T14:33:16.720Z,15.70
2019-02-17T14:35:45.183Z,15.50
2019-02-17T14:38:13.586Z,15.50
2019-02-17T14:40:42.958Z,15.40
2019-02-17T14:43:11.514Z,15.50
2019-02-17T14:45:39.946Z,15.50
2019-02-17T14:48:08.474Z,15.60
2019-02-17T14:50:36.909Z,15.70
2019-02-17T14:53:05.321Z,16.10
2019-02-17T14:55:33.745Z,16.00
2019-02-17T14:58:05.324Z,15.50
2019-02-17T15:00:32.419Z,15.60
2019-02-17T15:03:00.917Z,15.50
2019-02-17T15:05:29.358Z,15.70
2019-02-17T15:07:57.795Z,15.70
2019-02-17T15:10:26.241Z,16.10
2019-02-17T15:12:54.674Z,15.90
2019-02-17T15:15:23.118Z,16.00
2019-02-17T15:17:52.921Z,15.90
2019-02-17T15:20:23.789Z,16.10
2019-02-17T15:22:52.272Z,15.50
2019-02-17T15:25:20.711Z,15.70
2019-02-17T15:27:49.615Z,15.20
2019-02-17T15:30:18.312Z,14.90
2019-02-17T15:32:46.945Z,15.10
2019-02-17T15:35:15.426Z,15.10
2019-02-17T15:37:43.944Z,15.30
2019-02-17T15:40:13.637Z,15.60
2019-02-17T15:42:43.380Z,15.70
2019-02-17T15:45:13.261Z,16.00
2019-02-17T15:47:41.768Z,16.10
2019-02-17T15:50:14.321Z,15.80
2019-02-17T15:52:43.313Z,16.30
2019-02-17T15:55:13.169Z,16.50
2019-02-17T15:57:41.699Z,16.60
2019-02-17T16:00:15.240Z,16.30
2019-02-17T16:02:43.667Z,16.60
2019-02-17T16:05:12.149Z,16.60
2019-02-17T16:07:40.592Z,16.60
2019-02-17T16:10:11.916Z,16.50
2019-02-17T16:12:40.392Z,16.80
2019-02-17T16:15:19.999Z,16.90
2019-02-17T16:17:48.582Z,17.10
2019-02-17T16:20:17.018Z,17.10
2019-02-17T16:22:45.801Z,17.30
2019-02-17T16:25:14.926Z,17.30
2019-02-17T16:27:43.337Z,17.40
2019-02-17T16:30:16.443Z,17.50
2019-02-17T16:32:44.878Z,17.50
2019-02-17T16:35:13.382Z,17.80
2019-02-17T16:37:41.889Z,18.00
2019-02-17T16:40:15.365Z,18.20
2019-02-17T16:42:43.860Z,18.30
2019-02-17T16:45:13.535Z,18.50
2019-02-17T16:47:42.206Z,18.70
2019-02-17T16:50:31.541Z,19.10
2019-02-17T16:53:00.046Z,19.40
2019-02-17T16:55:28.469Z,19.30
2019-02-17T16:57:56.880Z,20.10
2019-02-17T17:00:25.692Z,20.40
2019-02-17T17:02:55.254Z,20.80
2019-02-17T17:05:24.558Z,20.90
2019-02-17T17:07:53.003Z,21.60
2019-02-17T17:10:21.530Z,21.60
2019-02-17T17:12:50.374Z,21.70
2019-02-17T17:15:18.927Z,22.80
2019-02-17T17:17:47.385Z,22.00
2019-02-17T17:20:22.766Z,22.50
2019-02-17T17:22:51.312Z,22.70
2019-02-17T17:25:20.445Z,23.00
2019-02-17T17:27:48.867Z,23.20
2019-02-17T17:30:18.540Z,23.70
2019-02-17T17:32:47.309Z,24.60
2019-02-17T17:35:15.797Z,24.50
2019-02-17T17:37:44.217Z,24.60
2019-02-17T17:40:14.046Z,24.90
2019-02-17T17:42:42.567Z,25.00
2019-02-17T17:45:19.417Z,25.30
2019-02-17T17:47:48.233Z,25.70
2019-02-17T17:50:17.033Z,25.90
2019-02-17T17:52:45.587Z,26.20
2019-02-17T17:55:15.513Z,26.70
2019-02-17T17:57:44.012Z,27.00
2019-02-17T18:00:16.391Z,27.00
2019-02-17T18:02:44.950Z,27.90
2019-02-17T18:05:13.444Z,28.20
2019-02-17T18:07:42.321Z,28.40
2019-02-17T18:10:13.574Z,28.70
2019-02-17T18:12:42.052Z,29.00
2019-02-17T18:15:13.618Z,29.40
2019-02-17T18:17:42.980Z,29.80
2019-02-17T18:20:12.978Z,30.10
2019-02-17T18:22:41.497Z,30.30
2019-02-17T18:25:12.890Z,30.60
2019-02-17T18:27:41.371Z,30.60
2019-02-17T18:30:18.093Z,30.90
2019-02-17T18:32:46.857Z,31.20
2019-02-17T18:35:19.794Z,31.60
2019-02-17T18:38:06.375Z,32.20
2019-02-17T18:40:44.451Z,32.30
2019-02-17T18:43:04.958Z,33.00
2019-02-17T18:45:33.375Z,33.40
2019-02-17T18:48:01.880Z,33.40
2019-02-17T18:50:30.356Z,33.20
2019-02-17T18:52:58.827Z,33.40
2019-02-17T18:55:27.251Z,33.70
2019-02-17T18:57:55.651Z,33.60
2019-02-17T19:00:27.335Z,33.40
2019-02-17T19:02:55.762Z,34.10
2019-02-17T19:05:31.730Z,35.20
2019-02-17T19:07:54.309Z,34.20
2019-02-17T19:10:22.762Z,34.30
2019-02-17T19:12:51.602Z,34.30
2019-02-17T19:15:21.288Z,34.50
2019-02-17T19:17:49.722Z,34.80
2019-02-17T19:20:29.349Z,35.10
2019-02-17T19:22:57.752Z,36.50
2019-02-17T19:25:26.625Z,36.30
2019-02-17T19:27:55.023Z,36.70
2019-02-17T19:30:23.458Z,37.30
2019-02-17T19:32:53.405Z,36.60
2019-02-17T19:35:21.810Z,36.70
2019-02-17T19:37:50.221Z,37.00
2019-02-17T19:40:18.653Z,37.30
2019-02-17T19:42:47.083Z,37.30
2019-02-17T19:45:19.301Z,37.30
2019-02-17T19:47:48.191Z,37.70
2019-02-17T19:50:17.069Z,38.10
2019-02-17T19:52:45.647Z,38.00
2019-02-17T19:55:14.593Z,38.10
2019-02-17T19:57:43.187Z,38.00
2019-02-17T20:00:13.425Z,38.10
2019-02-17T20:02:59.792Z,38.60
2019-02-17T20:05:29.951Z,39.40
2019-02-17T20:07:58.336Z,39.50
2019-02-17T20:10:26.764Z,39.60
2019-02-17T20:12:55.168Z,39.70
2019-02-17T20:15:25.209Z,40.20
2019-02-17T20:17:53.698Z,40.60
2019-02-17T20:20:22.263Z,40.90
2019-02-17T20:22:50.706Z,41.10
2019-02-17T20:25:19.479Z,41.20
2019-02-17T20:27:48.024Z,40.90
2019-02-17T20:30:16.816Z,41.20
2019-02-17T20:32:45.305Z,41.10
2019-02-17T20:35:13.772Z,40.80
2019-02-17T20:37:42.198Z,40.90
2019-02-17T20:40:12.759Z,41.20
2019-02-17T20:42:41.168Z,41.80
2019-02-17T20:45:12.656Z,42.00
2019-02-17T20:47:41.357Z,42.00
2019-02-17T20:50:14.847Z,42.50
2019-02-17T20:52:43.289Z,42.80
2019-02-17T20:55:12.627Z,43.10
2019-02-17T20:57:41.053Z,43.30
2019-02-17T21:00:11.705Z,43.70
2019-02-17T21:02:40.126Z,43.70
2019-02-17T21:05:09.668Z,44.00
2019-02-17T21:07:38.089Z,45.10
2019-02-17T21:10:12.679Z,44.50
2019-02-17T21:12:41.189Z,44.30
2019-02-17T21:15:12.476Z,44.20
2019-02-17T21:17:40.939Z,44.10
2019-02-17T21:20:10.774Z,44.20
2019-02-17T21:22:39.259Z,44.10
2019-02-17T21:25:12.398Z,44.00
2019-02-17T21:27:40.878Z,43.30
2019-02-17T21:30:16.808Z,42.90
2019-02-17T21:32:45.453Z,42.70
2019-02-17T21:35:15.865Z,42.50
2019-02-17T21:37:44.322Z,42.40
2019-02-17T21:40:13.855Z,42.40
2019-02-17T21:42:42.262Z,42.30
2019-02-17T21:45:14.809Z,42.20
2019-02-17T21:47:43.568Z,41.70
2019-02-17T21:50:13.206Z,41.40
2019-02-17T21:52:42.295Z,41.40
2019-02-17T21:55:15.012Z,41.30
2019-02-17T21:57:43.505Z,40.90
2019-02-17T22:00:21.578Z,41.00
2019-02-17T22:02:50.098Z,40.40
2019-02-17T22:05:19.400Z,40.20
2019-02-17T22:07:47.882Z,40.10
2019-02-17T22:10:20.252Z,39.90
2019-02-17T22:12:51.033Z,39.90
2019-02-17T22:15:23.273Z,39.40
2019-02-17T22:17:51.955Z,39.30
2019-02-17T22:20:20.764Z,39.30
2019-02-17T22:22:49.167Z,38.90
2019-02-17T22:25:17.642Z,39.20
2019-02-17T22:27:46.229Z,38.90
2019-02-17T22:30:15.376Z,39.20
2019-02-17T22:32:43.883Z,39.80
2019-02-17T22:35:12.360Z,39.30
2019-02-17T22:37:40.770Z,39.00
2019-02-17T22:40:18.110Z,39.40
2019-02-17T22:42:46.589Z,39.00
2019-02-17T22:45:15.088Z,39.70
2019-02-17T22:47:43.580Z,39.70
2019-02-17T22:50:14.633Z,40.00
2019-02-17T22:52:44.391Z,40.10
2019-02-17T22:55:13.748Z,40.10
2019-02-17T22:57:42.250Z,40.30
2019-02-17T23:00:33.097Z,40.30
2019-02-17T23:03:01.590Z,40.60
2019-02-17T23:05:29.999Z,40.90
2019-02-17T23:07:58.410Z,41.20
2019-02-17T23:10:26.829Z,41.20
2019-02-17T23:12:55.253Z,41.30
2019-02-17T23:15:23.694Z,41.20
2019-02-17T23:17:52.139Z,41.30
2019-02-17T23:20:20.580Z,41.30
2019-02-17T23:22:48.999Z,41.20
2019-02-17T23:25:17.841Z,41.20
2019-02-17T23:27:46.738Z,41.30
2019-02-17T23:30:15.241Z,41.10
2019-02-17T23:32:43.685Z,41.10
2019-02-17T23:35:12.127Z,41.10
2019-02-17T23:37:40.540Z,41.50
2019-02-17T23:40:10.762Z,41.80
2019-02-17T23:42:39.181Z,42.00
2019-02-17T23:45:10.697Z,42.10
2019-02-17T23:47:39.163Z,42.50
2019-02-17T23:50:10.377Z,42.70
2019-02-17T23:52:39.329Z,42.50
2019-02-17T23:55:09.289Z,42.60
2019-02-17T23:57:38.229Z,43.30
